Rapid River, MI

3:50 AM EST on November 27, 2014 (GMT -0500)
RAWS STONINGTON MI US | Change Station
CLOSE
Current Station
Personal Weather Station
Location: Rapid River, MI
Elevation: 652 ft
Nearby Weather Stations

Elev 652 ft 45.90 °N, 86.93 °W | Updated 47 minutes ago

Overcast
Overcast
23 °F
Feels Like 15 °F
N
7
Wind Variable Wind from North
Gusts 15.0 mph

Today
High -- | Low -- °F
--% Chance of Precip.
Yesterday
High -- | Low -- °F
Precip. -- in
8:03 AM 5:06 PM
Waxing Crescent, 27% visible
Pressure 30.20 in
Visibility 10.0 miles
Clouds Mostly Cloudy 4200 ft
Mostly Cloudy 4800 ft
Overcast 9000 ft
Windchill 15 °F
Dew Point 17 °F
Humidity 79%
Rainfall 0.08 in
Snow Depth Not available.
UV 0 out of 12
Pollen .10 out of 12
Air Quality Not available.
Flu Activity Not available.
METAR KESC 270835Z AUTO 33008G15KT 10SM BKN042 BKN048 OVC090 M06/M10 A3020 RMK AO1

More Conditions Fewer Conditions

Pressure 30.20 in
Visibility 10.0 miles
Clouds Mostly Cloudy 4200 ft
Mostly Cloudy 4800 ft
Overcast 9000 ft
Windchill 15 °F
Dew Point 17 °F
Humidity 79%
Rainfall 0.08 in
Snow Depth Not available.
UV 0 out of 12
Pollen .10 out of 12
Air Quality Not available.
Flu Activity Not available.
METAR KESC 270835Z AUTO 33008G15KT 10SM BKN042 BKN048 OVC090 M06/M10 A3020 RMK AO1

More Conditions Fewer Conditions

10-Day Weather Forecast

Almanac

Astronomy

Nov. 27, 2014 Rise Set
Actual Time
Civil Twilight
Nautical Twilight
Astronomical Twilight
Moon
Length of Visible Light
Length of Day
Tomorrow will be .
, % of the Moon is Illuminated

Today's Extremes

State Highs State Lows

Community

WunderPhotos

Upload Photos

1,773,965 photos uploaded!

WunderBlogs® & News

Nearby

Air Quality

  Air Quality AQ Index Pollutant
Not available.

Snow Depth

Station Depth Elevation

Earthquake Activity

City Distance Mag. Time & Date
Minimum magnitude displayed is 2.5.

Coastal Water Temperatures

Place Temperature

Nearby Weather Stations